createdAt,value
2018-09-13T00:01:59.011Z,4.50
2018-09-13T00:04:27.451Z,4.47
2018-09-13T00:06:55.884Z,4.17
2018-09-13T00:09:24.387Z,4.53
2018-09-13T00:11:52.836Z,4.23
2018-09-13T00:14:21.272Z,4.20
2018-09-13T00:16:49.684Z,4.10
2018-09-13T00:19:18.099Z,3.90
2018-09-13T00:21:46.568Z,4.40
2018-09-13T00:24:15.062Z,3.90
2018-09-13T00:26:43.581Z,4.20
2018-09-13T00:29:12.114Z,4.10
2018-09-13T00:31:40.530Z,4.03
2018-09-13T00:34:08.961Z,4.20
2018-09-13T00:36:37.437Z,3.27
2018-09-13T00:39:07.141Z,3.90
2018-09-13T00:41:35.589Z,4.13
2018-09-13T00:44:04.077Z,4.03
2018-09-13T00:46:32.563Z,3.40
2018-09-13T00:49:00.968Z,3.87
2018-09-13T00:51:29.455Z,3.20
2018-09-13T00:53:58.000Z,3.60
2018-09-13T00:56:26.401Z,3.70
2018-09-13T00:58:55.156Z,3.73
2018-09-13T01:01:23.557Z,3.70
2018-09-13T01:03:52.051Z,4.03
2018-09-13T01:06:21.073Z,3.97
2018-09-13T01:08:49.514Z,3.50
2018-09-13T01:11:18.673Z,3.80
2018-09-13T01:13:47.144Z,3.93
2018-09-13T01:16:15.587Z,3.57
2018-09-13T01:18:44.078Z,4.07
2018-09-13T01:21:12.489Z,4.23
2018-09-13T01:23:40.932Z,4.13
2018-09-13T01:26:09.406Z,3.87
2018-09-13T01:28:37.813Z,4.00
2018-09-13T01:31:06.332Z,4.20
2018-09-13T01:33:34.770Z,4.03
2018-09-13T01:36:03.224Z,4.30
2018-09-13T01:38:31.659Z,4.20
2018-09-13T01:41:00.151Z,4.43
2018-09-13T01:43:28.592Z,4.20
2018-09-13T01:45:57.052Z,4.33
2018-09-13T01:48:25.459Z,4.60
2018-09-13T01:50:53.947Z,4.50
2018-09-13T01:53:22.446Z,4.83
2018-09-13T01:55:50.851Z,4.13
2018-09-13T01:58:19.333Z,4.73
2018-09-13T02:00:47.838Z,4.83
2018-09-13T02:03:16.277Z,4.63
2018-09-13T02:05:44.717Z,4.73
2018-09-13T02:08:13.192Z,5.20
2018-09-13T02:10:41.611Z,5.10
2018-09-13T02:13:10.058Z,4.07
2018-09-13T02:15:38.561Z,5.30
2018-09-13T02:18:07.077Z,5.30
2018-09-13T02:20:35.581Z,4.90
2018-09-13T02:23:04.064Z,4.53
2018-09-13T02:25:32.479Z,4.70
2018-09-13T02:28:00.987Z,4.40
2018-09-13T02:30:29.511Z,5.10
2018-09-13T02:32:57.943Z,5.20
2018-09-13T02:35:26.372Z,4.67
2018-09-13T02:37:54.821Z,4.90
2018-09-13T02:40:24.056Z,4.93
2018-09-13T02:42:52.526Z,4.77
2018-09-13T02:45:20.946Z,4.97
2018-09-13T02:47:49.361Z,5.30
2018-09-13T02:50:17.829Z,4.20
2018-09-13T02:52:46.272Z,4.83
2018-09-13T02:55:14.660Z,5.07
2018-09-13T02:57:43.109Z,3.83
2018-09-13T03:00:11.559Z,4.17
2018-09-13T03:02:39.976Z,4.73
2018-09-13T03:05:08.421Z,5.10
2018-09-13T03:07:36.900Z,4.93
2018-09-13T03:10:05.376Z,5.13
2018-09-13T03:12:33.888Z,5.33
2018-09-13T03:15:02.428Z,5.50
2018-09-13T03:17:30.842Z,4.47
2018-09-13T03:19:59.257Z,5.60
2018-09-13T03:22:27.673Z,5.57
2018-09-13T03:24:56.104Z,5.00
2018-09-13T03:27:24.608Z,5.13
2018-09-13T03:29:53.153Z,5.27
2018-09-13T03:32:21.645Z,5.23
2018-09-13T03:34:50.082Z,4.40
2018-09-13T03:37:18.602Z,5.07
2018-09-13T03:39:47.042Z,4.90
2018-09-13T03:42:15.502Z,4.60
2018-09-13T03:44:43.944Z,5.10
2018-09-13T03:47:12.372Z,4.80
2018-09-13T03:49:40.777Z,5.30
2018-09-13T03:52:09.227Z,4.93
2018-09-13T03:54:37.629Z,4.67
2018-09-13T03:57:06.111Z,4.20
2018-09-13T03:59:34.540Z,4.57
2018-09-13T04:02:02.988Z,4.90
2018-09-13T04:04:32.120Z,4.53
2018-09-13T04:07:00.578Z,4.23
2018-09-13T04:09:29.009Z,4.10
2018-09-13T04:11:57.425Z,4.37
2018-09-13T04:14:25.870Z,4.60
2018-09-13T04:16:54.303Z,4.60
2018-09-13T04:19:22.751Z,4.40
2018-09-13T04:21:51.164Z,5.00
2018-09-13T04:24:19.609Z,4.63
2018-09-13T04:26:48.031Z,4.60
2018-09-13T04:29:16.472Z,4.63
2018-09-13T04:31:45.016Z,4.40
2018-09-13T04:34:13.504Z,4.00
2018-09-13T04:36:41.906Z,3.37
2018-09-13T04:39:10.407Z,3.03
2018-09-13T04:41:38.803Z,4.40
2018-09-13T04:44:07.236Z,4.00
2018-09-13T04:46:35.754Z,4.23
2018-09-13T04:49:04.293Z,4.03
2018-09-13T04:51:32.706Z,3.70
2018-09-13T04:54:01.161Z,4.37
2018-09-13T04:56:29.678Z,4.33
2018-09-13T04:58:58.156Z,4.13
2018-09-13T05:01:26.573Z,3.40
2018-09-13T05:03:55.019Z,3.87
2018-09-13T05:06:23.449Z,3.87
2018-09-13T05:08:51.852Z,4.30
2018-09-13T05:11:20.377Z,4.10
2018-09-13T05:13:48.833Z,4.30
2018-09-13T05:16:17.389Z,4.17
2018-09-13T05:18:46.188Z,4.60
2018-09-13T05:21:14.624Z,4.17
2018-09-13T05:23:43.122Z,4.63
2018-09-13T05:26:11.556Z,4.37
2018-09-13T05:28:39.988Z,4.53
2018-09-13T05:31:08.746Z,4.00
2018-09-13T05:33:37.216Z,4.30
2018-09-13T05:36:05.677Z,4.63
2018-09-13T05:38:34.168Z,4.80
2018-09-13T05:41:02.637Z,4.30
2018-09-13T05:43:31.045Z,3.87
2018-09-13T05:45:59.508Z,3.60
2018-09-13T05:48:27.953Z,3.93
2018-09-13T05:50:56.357Z,4.30
2018-09-13T05:53:24.846Z,4.40
2018-09-13T05:55:53.283Z,3.87
2018-09-13T05:58:21.856Z,3.30
2018-09-13T06:00:50.816Z,4.00
2018-09-13T06:03:19.211Z,4.27
2018-09-13T06:05:48.320Z,3.57
2018-09-13T06:08:16.769Z,4.00
2018-09-13T06:10:45.282Z,3.93
2018-09-13T06:13:13.848Z,3.53
2018-09-13T06:15:42.748Z,4.03
2018-09-13T06:18:11.223Z,3.40
2018-09-13T06:20:39.676Z,3.80
2018-09-13T06:23:08.132Z,3.40
2018-09-13T06:25:36.696Z,3.63
2018-09-13T06:28:05.697Z,3.90
2018-09-13T06:30:34.192Z,3.43
2018-09-13T06:33:02.705Z,4.00
2018-09-13T06:35:31.147Z,4.07
2018-09-13T06:37:59.572Z,3.37
2018-09-13T06:40:28.679Z,3.33
2018-09-13T06:42:57.118Z,3.83
2018-09-13T06:45:25.601Z,4.00
2018-09-13T06:47:54.132Z,3.83
2018-09-13T06:50:22.574Z,3.80
2018-09-13T06:52:51.033Z,3.53
2018-09-13T06:55:19.486Z,4.17
2018-09-13T06:57:47.923Z,3.50
2018-09-13T07:00:16.418Z,3.47
2018-09-13T07:02:45.468Z,3.77
2018-09-13T07:05:13.943Z,3.37
2018-09-13T07:07:42.416Z,3.60
2018-09-13T07:10:11.216Z,3.30
2018-09-13T07:12:39.628Z,3.50
2018-09-13T07:15:08.091Z,3.57
2018-09-13T07:17:36.541Z,2.70
2018-09-13T07:20:05.516Z,3.07
2018-09-13T07:22:33.990Z,3.30
2018-09-13T07:25:02.466Z,3.83
2018-09-13T07:27:30.932Z,2.90
2018-09-13T07:29:59.354Z,3.27
2018-09-13T07:32:27.868Z,3.73
2018-09-13T07:34:56.321Z,3.73
2018-09-13T07:37:24.769Z,2.40
2018-09-13T07:39:53.289Z,3.33
2018-09-13T07:42:21.754Z,3.20
2018-09-13T07:44:50.262Z,2.67
2018-09-13T07:47:18.708Z,3.77
2018-09-13T07:49:47.339Z,3.63
2018-09-13T07:52:15.711Z,3.27
2018-09-13T07:54:44.167Z,3.80
2018-09-13T07:57:12.623Z,3.23
2018-09-13T07:59:41.526Z,3.13
2018-09-13T08:02:10.568Z,3.17
2018-09-13T08:04:39.000Z,3.23
2018-09-13T08:07:07.446Z,3.50
2018-09-13T08:09:35.875Z,3.20
2018-09-13T08:12:04.487Z,3.37
2018-09-13T08:14:32.816Z,3.07
2018-09-13T08:17:01.240Z,3.03
2018-09-13T08:19:29.700Z,3.33
2018-09-13T08:21:58.115Z,3.40
2018-09-13T08:24:26.515Z,3.80
2018-09-13T08:26:54.997Z,3.37
2018-09-13T08:29:23.382Z,3.73
2018-09-13T08:31:51.836Z,3.23
2018-09-13T08:34:20.325Z,3.23
2018-09-13T08:36:48.787Z,3.43
2018-09-13T08:39:17.324Z,3.93
2018-09-13T08:41:45.749Z,2.90
2018-09-13T08:44:14.174Z,3.50
2018-09-13T08:46:42.567Z,3.40
2018-09-13T08:49:11.084Z,3.77
2018-09-13T08:51:39.512Z,3.70
2018-09-13T08:54:08.014Z,3.23
2018-09-13T08:56:36.442Z,3.30
2018-09-13T08:59:04.925Z,3.40
2018-09-13T09:01:33.355Z,3.30
2018-09-13T09:04:01.783Z,3.17
2018-09-13T09:06:30.281Z,3.27
2018-09-13T09:08:58.699Z,3.27
2018-09-13T09:11:27.153Z,3.30
2018-09-13T09:13:55.590Z,2.70
2018-09-13T09:16:24.081Z,3.10
2018-09-13T09:18:52.516Z,3.47
2018-09-13T09:21:20.987Z,3.20
2018-09-13T09:23:49.487Z,3.50
2018-09-13T09:26:17.940Z,2.83
2018-09-13T09:28:47.143Z,3.37
2018-09-13T09:31:15.592Z,2.53
2018-09-13T09:33:44.016Z,2.47
2018-09-13T09:36:12.494Z,2.87
2018-09-13T09:38:40.947Z,2.43
2018-09-13T09:41:09.415Z,2.47
2018-09-13T09:43:37.915Z,2.70
2018-09-13T09:46:06.460Z,2.70
2018-09-13T09:48:35.086Z,2.47
2018-09-13T09:51:04.111Z,2.73
2018-09-13T09:53:32.589Z,2.53
2018-09-13T09:56:01.036Z,2.70
2018-09-13T09:58:29.478Z,2.20
2018-09-13T10:01:03.080Z,2.90
2018-09-13T10:03:31.564Z,2.70
2018-09-13T10:06:00.017Z,2.40
2018-09-13T10:08:28.489Z,3.10
2018-09-13T10:10:56.895Z,2.77
2018-09-13T10:13:25.330Z,1.60
2018-09-13T10:15:59.263Z,2.37
2018-09-13T10:18:33.298Z,2.67
2018-09-13T10:21:06.953Z,3.03
2018-09-13T10:23:40.701Z,3.00
2018-09-13T10:26:14.430Z,2.77
2018-09-13T10:28:48.196Z,3.17
2018-09-13T10:31:22.016Z,3.03
2018-09-13T10:33:55.612Z,3.23
2018-09-13T10:36:29.253Z,3.30
2018-09-13T10:39:03.267Z,3.10
2018-09-13T10:41:37.116Z,3.10
2018-09-13T10:44:10.898Z,2.50
2018-09-13T10:46:39.350Z,2.90
2018-09-13T10:49:13.158Z,2.13
2018-09-13T10:51:46.793Z,2.97
2018-09-13T10:54:24.494Z,2.90
2018-09-13T10:56:53.088Z,2.70
2018-09-13T10:59:21.639Z,2.53
2018-09-13T11:01:50.088Z,3.20
2018-09-13T11:04:18.575Z,2.73
2018-09-13T11:06:46.943Z,2.43
2018-09-13T11:09:15.431Z,2.60
2018-09-13T11:11:44.170Z,3.10
2018-09-13T11:14:24.980Z,2.80
2018-09-13T11:16:53.461Z,2.83
2018-09-13T11:19:22.005Z,2.60
2018-09-13T11:21:50.596Z,2.27
2018-09-13T11:24:19.730Z,2.50
2018-09-13T11:26:48.881Z,2.53
2018-09-13T11:29:17.448Z,2.53
2018-09-13T11:31:45.958Z,2.73
2018-09-13T11:34:14.398Z,2.80
2018-09-13T11:36:42.868Z,2.60
2018-09-13T11:39:12.444Z,2.87
2018-09-13T11:41:40.864Z,2.83
2018-09-13T11:44:09.399Z,3.03
2018-09-13T11:46:38.163Z,2.70
2018-09-13T11:49:06.736Z,2.67
2018-09-13T11:51:35.209Z,2.77
2018-09-13T11:54:03.756Z,3.17
2018-09-13T11:56:32.161Z,2.90
2018-09-13T11:59:00.728Z,2.70
2018-09-13T12:01:29.144Z,2.60
2018-09-13T12:03:57.615Z,2.40
2018-09-13T12:06:26.090Z,2.80
2018-09-13T12:08:54.554Z,2.53
2018-09-13T12:11:22.968Z,2.87
2018-09-13T12:13:51.434Z,2.30
2018-09-13T12:16:20.039Z,2.60
2018-09-13T12:18:48.597Z,2.57
2018-09-13T12:21:17.024Z,2.40
2018-09-13T12:23:45.460Z,2.27
2018-09-13T12:26:13.872Z,2.53
2018-09-13T12:28:42.352Z,2.30
2018-09-13T12:31:10.780Z,2.30
2018-09-13T12:33:39.292Z,2.40
2018-09-13T12:36:07.733Z,2.50
2018-09-13T12:38:36.153Z,2.30
2018-09-13T12:41:05.173Z,2.40
2018-09-13T12:43:33.690Z,2.60
2018-09-13T12:46:02.134Z,2.80
2018-09-13T12:48:30.554Z,2.87
2018-09-13T12:50:59.033Z,2.57
2018-09-13T12:53:27.444Z,1.80
2018-09-13T12:55:56.375Z,2.80
2018-09-13T12:58:26.101Z,2.73
2018-09-13T13:00:54.698Z,2.60
2018-09-13T13:03:23.259Z,2.17
2018-09-13T13:05:51.758Z,2.77
2018-09-13T13:08:20.240Z,2.87
2018-09-13T13:10:48.725Z,2.70
2018-09-13T13:13:17.148Z,2.40
2018-09-13T13:15:45.566Z,2.73
2018-09-13T13:18:14.033Z,2.80
2018-09-13T13:20:42.508Z,2.07
2018-09-13T13:23:10.968Z,2.47
2018-09-13T13:25:39.438Z,2.73
2018-09-13T13:28:07.931Z,2.67
2018-09-13T13:30:36.364Z,1.77
2018-09-13T13:33:04.894Z,2.20
2018-09-13T13:35:33.326Z,2.20
2018-09-13T13:38:01.728Z,1.77
2018-09-13T13:40:30.139Z,1.80
2018-09-13T13:42:58.602Z,1.70
2018-09-13T13:45:27.087Z,2.53
2018-09-13T13:47:55.660Z,1.87
2018-09-13T13:50:24.113Z,1.93
2018-09-13T13:52:52.552Z,1.47
2018-09-13T13:55:21.013Z,2.20
2018-09-13T13:57:49.480Z,2.30
2018-09-13T14:00:17.920Z,2.03
2018-09-13T14:02:46.356Z,2.40
2018-09-13T14:05:14.767Z,2.30
2018-09-13T14:07:43.314Z,1.27
2018-09-13T14:10:11.864Z,2.10
2018-09-13T14:12:40.344Z,1.83
2018-09-13T14:15:08.835Z,2.00
2018-09-13T14:17:37.292Z,1.93
2018-09-13T14:20:05.772Z,2.50
2018-09-13T14:22:34.266Z,2.87
2018-09-13T14:25:02.863Z,2.30
2018-09-13T14:27:31.309Z,2.60
2018-09-13T14:29:59.738Z,2.40
2018-09-13T14:32:28.215Z,2.30
2018-09-13T14:34:56.697Z,2.10
2018-09-13T14:37:25.613Z,2.17
2018-09-13T14:39:54.104Z,2.30
2018-09-13T14:42:22.615Z,2.17
2018-09-13T14:44:57.733Z,2.53
2018-09-13T14:47:26.225Z,2.10
2018-09-13T14:49:54.699Z,2.00
2018-09-13T14:52:23.143Z,2.17
2018-09-13T14:54:52.545Z,1.60
2018-09-13T14:57:21.074Z,1.90
2018-09-13T14:59:49.472Z,1.97
2018-09-13T15:02:18.038Z,2.10
2018-09-13T15:04:46.603Z,2.40
2018-09-13T15:07:15.841Z,1.97
2018-09-13T15:09:44.311Z,2.20
2018-09-13T15:12:12.880Z,1.23
2018-09-13T15:14:41.311Z,1.90
2018-09-13T15:17:10.156Z,2.37
2018-09-13T15:19:38.572Z,1.90
2018-09-13T15:22:07.019Z,1.70
2018-09-13T15:24:35.693Z,1.90
2018-09-13T15:27:04.041Z,1.40
2018-09-13T15:29:32.635Z,1.70
2018-09-13T15:32:01.667Z,1.80
2018-09-13T15:34:30.085Z,1.90
2018-09-13T15:36:58.683Z,1.83
2018-09-13T15:39:27.159Z,1.70
2018-09-13T15:41:55.577Z,1.90
2018-09-13T15:44:24.004Z,2.10
2018-09-13T15:46:52.472Z,1.60
2018-09-13T15:49:20.937Z,1.63
2018-09-13T15:51:49.384Z,2.00
2018-09-13T15:54:17.845Z,1.80
2018-09-13T15:56:46.284Z,1.70
2018-09-13T15:59:14.713Z,1.80
2018-09-13T16:01:43.210Z,2.10
2018-09-13T16:04:11.654Z,1.97
2018-09-13T16:06:40.096Z,1.80
2018-09-13T16:09:09.182Z,2.17
2018-09-13T16:11:37.864Z,1.60
2018-09-13T16:14:06.393Z,1.77
2018-09-13T16:16:35.229Z,1.70
2018-09-13T16:19:03.798Z,2.00
2018-09-13T16:21:32.215Z,1.83
2018-09-13T16:24:00.702Z,1.80
2018-09-13T16:26:29.186Z,1.77
2018-09-13T16:28:57.785Z,2.00
2018-09-13T16:31:27.220Z,1.70
2018-09-13T16:33:55.769Z,1.67
2018-09-13T16:36:26.958Z,1.90
2018-09-13T16:39:00.584Z,1.60
2018-09-13T16:41:38.843Z,1.90
2018-09-13T16:44:07.420Z,2.07
2018-09-13T16:46:42.476Z,1.77
2018-09-13T16:49:10.889Z,1.90
2018-09-13T16:51:39.635Z,1.93
2018-09-13T16:54:08.190Z,2.00
2018-09-13T16:56:36.699Z,1.80
2018-09-13T16:59:05.380Z,1.80
2018-09-13T17:01:34.176Z,2.15
2018-09-13T17:04:06.996Z,1.93
2018-09-13T17:06:36.591Z,2.17
2018-09-13T17:09:08.424Z,1.80
2018-09-13T17:11:36.881Z,1.80
2018-09-13T17:14:05.349Z,1.83
2018-09-13T17:16:34.184Z,1.98
2018-09-13T17:19:02.620Z,1.90
2018-09-13T17:21:31.062Z,1.80
2018-09-13T17:23:59.507Z,2.20
2018-09-13T17:26:27.921Z,2.30
2018-09-13T17:28:56.356Z,2.20
2018-09-13T17:31:24.905Z,1.83
2018-09-13T17:33:53.603Z,2.00
2018-09-13T17:36:21.919Z,1.97
2018-09-13T17:38:50.389Z,1.80
2018-09-13T17:41:18.884Z,1.80
2018-09-13T17:43:47.738Z,1.90
2018-09-13T17:46:16.258Z,2.00
2018-09-13T17:48:44.679Z,1.90
2018-09-13T17:51:13.101Z,1.80
2018-09-13T17:53:41.574Z,2.00
2018-09-13T17:56:10.097Z,2.10
2018-09-13T17:58:38.549Z,1.90
2018-09-13T18:01:07.037Z,1.90
2018-09-13T18:03:35.639Z,2.10
2018-09-13T18:06:04.053Z,2.30
2018-09-13T18:08:32.520Z,2.10
2018-09-13T18:11:01.693Z,1.93
2018-09-13T18:13:30.166Z,2.00
2018-09-13T18:15:58.621Z,1.93
2018-09-13T18:18:27.076Z,1.77
2018-09-13T18:20:55.557Z,1.97
2018-09-13T18:23:24.112Z,2.00
2018-09-13T18:25:53.447Z,1.90
2018-09-13T18:28:22.049Z,1.97
2018-09-13T18:30:51.131Z,1.60
2018-09-13T18:33:19.810Z,2.00
2018-09-13T18:35:48.259Z,1.80
2018-09-13T18:38:17.607Z,1.80
2018-09-13T18:40:46.025Z,2.13
2018-09-13T18:43:14.513Z,1.93
2018-09-13T18:45:43.191Z,1.60
2018-09-13T18:48:12.072Z,1.70
2018-09-13T18:50:40.527Z,1.60
2018-09-13T18:53:10.000Z,1.80
2018-09-13T18:55:38.494Z,2.00
2018-09-13T18:58:08.100Z,2.03
2018-09-13T19:00:36.546Z,1.97
2018-09-13T19:03:04.995Z,1.90
2018-09-13T19:05:33.528Z,1.70
2018-09-13T19:08:01.988Z,1.90
2018-09-13T19:10:30.528Z,1.73
2018-09-13T19:12:59.032Z,2.07
2018-09-13T19:15:28.099Z,1.90
2018-09-13T19:17:56.514Z,1.90
2018-09-13T19:20:25.626Z,1.93
2018-09-13T19:22:54.817Z,1.80
2018-09-13T19:25:24.409Z,1.80
2018-09-13T19:27:52.884Z,2.00
2018-09-13T19:30:21.523Z,1.80
2018-09-13T19:32:49.935Z,1.90
2018-09-13T19:35:18.371Z,2.00
2018-09-13T19:37:46.783Z,2.00
2018-09-13T19:40:15.243Z,1.70
2018-09-13T19:42:43.731Z,2.57
2018-09-13T19:45:12.170Z,2.13
2018-09-13T19:47:40.647Z,2.37
2018-09-13T19:50:09.178Z,2.00
2018-09-13T19:52:37.634Z,2.20
2018-09-13T19:55:06.657Z,1.93
2018-09-13T19:57:35.100Z,1.83
2018-09-13T20:00:03.564Z,2.20
2018-09-13T20:02:32.062Z,2.13
2018-09-13T20:05:00.644Z,2.40
2018-09-13T20:07:29.044Z,2.27
2018-09-13T20:09:57.517Z,2.20
2018-09-13T20:12:25.999Z,2.20
2018-09-13T20:14:55.090Z,2.20
2018-09-13T20:17:23.588Z,2.13
2018-09-13T20:19:52.105Z,2.10
2018-09-13T20:22:20.521Z,2.37
2018-09-13T20:24:49.017Z,2.10
2018-09-13T20:27:17.493Z,2.40
2018-09-13T20:29:46.005Z,2.13
2018-09-13T20:32:14.442Z,2.30
2018-09-13T20:34:42.897Z,2.40
2018-09-13T20:37:11.456Z,2.40
2018-09-13T20:39:44.084Z,3.00
2018-09-13T20:42:12.552Z,2.30
2018-09-13T20:44:41.056Z,2.57
2018-09-13T20:47:09.639Z,2.60
2018-09-13T20:49:38.159Z,2.50
2018-09-13T20:52:06.695Z,2.60
2018-09-13T20:54:35.119Z,2.50
2018-09-13T20:57:03.653Z,2.30
2018-09-13T20:59:32.401Z,2.23
2018-09-13T21:02:00.903Z,2.20
2018-09-13T21:04:29.518Z,2.80
2018-09-13T21:06:57.973Z,2.60
2018-09-13T21:09:26.448Z,2.70
2018-09-13T21:11:54.894Z,2.40
2018-09-13T21:14:23.325Z,3.17
2018-09-13T21:16:51.803Z,3.27
2018-09-13T21:19:20.180Z,2.80
2018-09-13T21:21:48.640Z,2.40
2018-09-13T21:24:17.257Z,2.43
2018-09-13T21:26:45.922Z,2.50
2018-09-13T21:29:14.367Z,2.70
2018-09-13T21:31:43.641Z,2.53
2018-09-13T21:34:12.089Z,2.80
2018-09-13T21:36:40.548Z,2.80
2018-09-13T21:39:10.104Z,2.90
2018-09-13T21:41:38.560Z,2.57
2018-09-13T21:44:07.261Z,3.10
2018-09-13T21:46:35.683Z,2.63
2018-09-13T21:49:04.124Z,2.80
2018-09-13T21:51:32.572Z,2.83
2018-09-13T21:54:01.028Z,2.40
2018-09-13T21:56:29.504Z,2.83
2018-09-13T21:58:58.020Z,2.40
2018-09-13T22:01:26.400Z,3.10
2018-09-13T22:03:54.822Z,2.23
2018-09-13T22:06:23.348Z,2.80
2018-09-13T22:08:51.800Z,2.87
2018-09-13T22:11:20.305Z,2.87
2018-09-13T22:13:48.775Z,3.03
2018-09-13T22:16:17.288Z,2.93
2018-09-13T22:18:45.769Z,2.53
2018-09-13T22:21:14.193Z,2.90
2018-09-13T22:23:42.605Z,2.67
2018-09-13T22:26:11.196Z,3.43
2018-09-13T22:28:39.672Z,3.40
2018-09-13T22:31:08.093Z,3.17
2018-09-13T22:33:36.504Z,3.30
2018-09-13T22:36:05.043Z,3.90
2018-09-13T22:38:33.581Z,3.23
2018-09-13T22:41:02.030Z,3.13
2018-09-13T22:43:35.851Z,3.27
2018-09-13T22:46:04.343Z,3.00
2018-09-13T22:48:32.864Z,3.10
2018-09-13T22:51:01.336Z,3.30
2018-09-13T22:53:29.873Z,3.30
2018-09-13T22:55:58.291Z,3.47
2018-09-13T22:58:26.698Z,3.47
2018-09-13T23:00:57.348Z,3.17
2018-09-13T23:03:26.061Z,3.20
2018-09-13T23:05:54.567Z,3.90
2018-09-13T23:08:23.000Z,3.33
2018-09-13T23:10:51.499Z,3.20
2018-09-13T23:13:20.020Z,3.87
2018-09-13T23:15:48.548Z,3.30
2018-09-13T23:18:17.050Z,3.60
2018-09-13T23:20:45.466Z,3.57
2018-09-13T23:23:13.946Z,3.80
2018-09-13T23:25:42.345Z,3.60
2018-09-13T23:28:10.776Z,3.70
2018-09-13T23:30:39.296Z,3.80
2018-09-13T23:33:07.871Z,3.73
2018-09-13T23:35:36.335Z,3.47
2018-09-13T23:38:04.762Z,3.60
2018-09-13T23:40:33.367Z,3.73
2018-09-13T23:43:01.839Z,4.03
2018-09-13T23:45:30.346Z,3.90
2018-09-13T23:47:59.344Z,3.73
2018-09-13T23:50:27.797Z,4.17
2018-09-13T23:52:56.315Z,3.83
2018-09-13T23:55:24.788Z,4.40
2018-09-13T23:57:53.202Z,4.10
